Time;durP1;ratioP1;P1;durP2;ratioP2;P2;SDS_P1;SDS_P2;PMS_P1;PMS_P2;Temp;Humidity;BMP_temperature;BMP_pressure;BME280_temperature;BME280_humidity;BME280_pressure;Samples;Min_cycle;Max_cycle;Signal;HPM_P1;HPM_P2
2021/11/22 00:01:53;;;;;;;51.20;30.17;;;;;;;;;;5037405;28;20419;-89
2021/11/22 00:04:19;;;;;;;51.08;28.50;;;;;;;;;;5038080;28;20030;-90
2021/11/22 00:06:45;;;;;;;52.08;30.23;;;;;;;;;;5038029;28;20017;-89
2021/11/22 00:09:11;;;;;;;53.05;29.13;;;;;;;;;;5037186;28;20018;-88
2021/11/22 00:11:37;;;;;;;48.05;28.23;;;;;;;;;;5037291;28;20405;-90
2021/11/22 00:14:04;;;;;;;48.03;28.42;;;;;;;;;;5037155;28;20021;-89
2021/11/22 00:16:30;;;;;;;48.83;28.80;;;;;;;;;;5037987;28;20025;-87
2021/11/22 00:18:56;;;;;;;47.63;28.48;;;;;;;;;;5037544;28;20124;-87
2021/11/22 00:21:22;;;;;;;55.35;30.42;;;;;;;;;;5037211;28;20432;-87
2021/11/22 00:23:49;;;;;;;47.50;28.27;;;;;;;;;;5037218;28;20071;-87
2021/11/22 00:26:15;;;;;;;50.53;28.52;;;;;;;;;;5036868;28;20412;-88
2021/11/22 00:28:41;;;;;;;55.40;29.48;;;;;;;;;;5036676;28;20033;-88
2021/11/22 00:36:55;;;;;;;56.03;30.08;;;;;;;;;;5037784;28;20029;-87
2021/11/22 00:39:21;;;;;;;63.85;31.77;;;;;;;;;;5037880;28;20037;-89
2021/11/22 00:41:47;;;;;;;52.92;32.03;;;;;;;;;;5036834;28;20104;-89
2021/11/22 00:44:14;;;;;;;54.20;30.83;;;;;;;;;;5036916;28;20030;-89
2021/11/22 00:46:40;;;;;;;44.85;28.40;;;;;;;;;;5036691;28;20111;-89
2021/11/22 00:49:06;;;;;;;49.45;28.88;;;;;;;;;;5036949;28;20029;-89
2021/11/22 00:51:33;;;;;;;49.53;29.88;;;;;;;;;;5037467;28;20045;-88
2021/11/22 00:53:59;;;;;;;47.60;29.10;;;;;;;;;;5037920;28;20359;-89
2021/11/22 00:56:27;;;;;;;45.83;28.77;;;;;;;;;;5037712;28;20057;-89
2021/11/22 00:58:53;;;;;;;45.40;27.92;;;;;;;;;;5036539;28;20060;-89
2021/11/22 01:01:19;;;;;;;42.33;27.02;;;;;;;;;;5037698;28;20033;-89
2021/11/22 01:03:46;;;;;;;50.92;27.98;;;;;;;;;;5037453;28;20056;-90
2021/11/22 01:06:12;;;;;;;48.83;29.20;;;;;;;;;;5037249;28;20291;-89
2021/11/22 01:08:38;;;;;;;68.72;37.40;;;;;;;;;;5037619;28;20029;-89
2021/11/22 01:11:04;;;;;;;64.15;36.00;;;;;;;;;;5037297;28;20061;-89
2021/11/22 01:13:30;;;;;;;60.33;35.13;;;;;;;;;;5037363;28;20445;-89
2021/11/22 01:15:56;;;;;;;71.00;38.08;;;;;;;;;;5037717;28;20038;-89
2021/11/22 01:18:22;;;;;;;76.65;42.65;;;;;;;;;;5036653;28;20045;-89
2021/11/22 01:20:48;;;;;;;83.75;42.58;;;;;;;;;;5037553;28;20316;-90
2021/11/22 01:23:14;;;;;;;119.40;56.50;;;;;;;;;;5036813;28;20419;-88
2021/11/22 01:25:42;;;;;;;161.90;77.47;;;;;;;;;;5036109;28;20034;-88
2021/11/22 01:28:08;;;;;;;142.07;71.40;;;;;;;;;;5036463;28;20049;-89
2021/11/22 01:30:35;;;;;;;217.23;102.82;;;;;;;;;;5038917;28;20021;-89
2021/11/22 01:33:01;;;;;;;228.82;107.50;;;;;;;;;;5041288;28;20025;-88
2021/11/22 01:35:27;;;;;;;331.52;151.48;;;;;;;;;;5040549;28;20040;-88
2021/11/22 01:37:53;;;;;;;259.83;121.05;;;;;;;;;;5040822;28;20036;-89
2021/11/22 01:40:21;;;;;;;262.85;117.43;;;;;;;;;;5039930;28;20034;-90
2021/11/22 01:42:48;;;;;;;245.43;107.00;;;;;;;;;;5039865;28;20030;-89
2021/11/22 01:45:16;;;;;;;146.52;74.03;;;;;;;;;;5040837;28;20033;-90
2021/11/22 01:47:42;;;;;;;141.32;70.40;;;;;;;;;;5039913;28;20026;-90
2021/11/22 01:50:10;;;;;;;106.85;55.22;;;;;;;;;;5039792;28;20017;-90
2021/11/22 01:52:38;;;;;;;103.97;53.50;;;;;;;;;;5040863;28;20055;-90
2021/11/22 01:55:05;;;;;;;92.88;50.67;;;;;;;;;;5039748;28;20420;-90
2021/11/22 01:57:32;;;;;;;141.38;74.03;;;;;;;;;;5040395;28;20033;-89
2021/11/22 01:59:58;;;;;;;257.65;126.20;;;;;;;;;;5039756;28;20063;-89
2021/11/22 02:02:24;;;;;;;179.10;93.60;;;;;;;;;;5039651;28;20025;-89
2021/11/22 02:04:50;;;;;;;167.65;87.60;;;;;;;;;;5039445;28;20416;-90
2021/11/22 02:07:16;;;;;;;153.30;79.47;;;;;;;;;;5040630;28;20036;-90
2021/11/22 02:09:42;;;;;;;137.55;72.57;;;;;;;;;;5039755;28;20079;-90
2021/11/22 02:12:08;;;;;;;291.20;139.63;;;;;;;;;;5039548;28;20072;-90
2021/11/22 02:14:35;;;;;;;244.10;118.75;;;;;;;;;;5040231;28;20064;-90
2021/11/22 02:17:01;;;;;;;227.15;105.75;;;;;;;;;;5039629;28;20128;-90
2021/11/22 02:19:27;;;;;;;240.10;116.85;;;;;;;;;;5039905;28;20711;-90
2021/11/22 02:21:54;;;;;;;206.52;98.63;;;;;;;;;;5040311;28;20324;-91
2021/11/22 02:24:20;;;;;;;134.60;67.32;;;;;;;;;;5039033;28;20032;-88
2021/11/22 02:26:46;;;;;;;82.00;44.58;;;;;;;;;;5039949;28;20028;-90
2021/11/22 02:29:12;;;;;;;70.95;41.22;;;;;;;;;;5039802;28;20083;-90
2021/11/22 02:31:40;;;;;;;66.00;38.83;;;;;;;;;;5040164;28;20308;-89
2021/11/22 02:34:07;;;;;;;50.45;32.25;;;;;;;;;;5040345;28;20021;-90
2021/11/22 02:36:52;;;;;;;52.97;30.75;;;;;;;;;;5039362;28;20083;-89
2021/11/22 02:39:18;;;;;;;44.83;30.02;;;;;;;;;;5039021;28;20032;-90
2021/11/22 02:41:44;;;;;;;49.75;32.13;;;;;;;;;;5039561;28;20021;-90
2021/11/22 02:44:10;;;;;;;50.85;33.70;;;;;;;;;;5039756;28;20028;-89
2021/11/22 02:46:36;;;;;;;52.88;34.97;;;;;;;;;;5039650;28;20033;-89
2021/11/22 02:49:03;;;;;;;53.22;34.50;;;;;;;;;;5039822;28;20029;-91
2021/11/22 02:51:29;;;;;;;54.03;35.38;;;;;;;;;;5039550;28;20441;-90
2021/11/22 02:53:59;;;;;;;56.83;35.47;;;;;;;;;;5039746;28;20075;-90
2021/11/22 02:56:28;;;;;;;51.60;33.83;;;;;;;;;;5038944;28;20030;-91
2021/11/22 02:58:54;;;;;;;47.28;31.02;;;;;;;;;;5039487;28;20416;-90
2021/11/22 03:01:20;;;;;;;41.85;29.02;;;;;;;;;;5038796;28;20092;-91
2021/11/22 03:06:52;;;;;;;43.95;29.63;;;;;;;;;;5038310;28;20053;-91
2021/11/22 03:09:19;;;;;;;48.10;29.58;;;;;;;;;;5038419;28;20064;-90
2021/11/22 03:11:45;;;;;;;45.20;29.23;;;;;;;;;;5039246;28;20032;-89
2021/11/22 03:14:11;;;;;;;43.40;30.17;;;;;;;;;;5038220;28;20064;-89
2021/11/22 03:16:37;;;;;;;53.10;31.60;;;;;;;;;;5038246;28;20401;-90
2021/11/22 03:19:04;;;;;;;53.13;33.13;;;;;;;;;;5032744;28;20034;-90
2021/11/22 03:21:30;;;;;;;49.97;32.47;;;;;;;;;;5038358;28;20072;-89
2021/11/22 03:23:56;;;;;;;55.75;32.60;;;;;;;;;;5038050;28;20311;-90
2021/11/22 03:26:22;;;;;;;48.63;31.38;;;;;;;;;;5038846;28;20033;-90
2021/11/22 03:28:48;;;;;;;53.55;32.28;;;;;;;;;;5038935;28;20108;-90
2021/11/22 03:31:14;;;;;;;52.22;32.80;;;;;;;;;;5038162;28;20044;-90
2021/11/22 03:36:44;;;;;;;58.45;33.47;;;;;;;;;;5038985;28;20466;-91
2021/11/22 03:39:15;;;;;;;52.08;32.92;;;;;;;;;;5037748;28;20026;-90
2021/11/22 03:41:41;;;;;;;53.30;32.88;;;;;;;;;;5038653;28;20026;-90
2021/11/22 03:44:11;;;;;;;55.30;33.65;;;;;;;;;;5037630;28;20021;-89
2021/11/22 03:46:46;;;;;;;55.65;34.83;;;;;;;;;;5038585;28;20312;-92
2021/11/22 03:52:15;;;;;;;60.47;36.10;;;;;;;;;;5038349;28;20055;-89
2021/11/22 03:54:41;;;;;;;65.20;38.22;;;;;;;;;;5038343;28;20030;-89
2021/11/22 03:57:07;;;;;;;67.03;39.22;;;;;;;;;;5037377;28;20030;-90
2021/11/22 03:59:35;;;;;;;63.60;36.92;;;;;;;;;;5038268;28;20056;-89
2021/11/22 04:02:02;;;;;;;63.80;38.80;;;;;;;;;;5038196;28;20108;-89
2021/11/22 04:04:28;;;;;;;64.60;38.20;;;;;;;;;;5038164;28;20033;-88
2021/11/22 04:06:55;;;;;;;59.95;35.03;;;;;;;;;;5037380;28;20051;-91
2021/11/22 04:09:21;;;;;;;57.25;32.83;;;;;;;;;;5037393;28;20018;-88
2021/11/22 04:11:47;;;;;;;59.28;34.47;;;;;;;;;;5038091;28;20017;-89
2021/11/22 04:14:13;;;;;;;65.13;34.35;;;;;;;;;;5038272;28;20053;-89
2021/11/22 04:16:40;;;;;;;57.00;34.38;;;;;;;;;;5037216;28;20115;-89
2021/11/22 04:22:36;;;;;;;103.68;55.97;;;;;;;;;;5038430;28;20052;-89
2021/11/22 04:25:03;;;;;;;80.72;47.33;;;;;;;;;;5037821;28;20076;-90
2021/11/22 04:27:29;;;;;;;76.13;44.30;;;;;;;;;;5036922;28;20052;-88
2021/11/22 04:29:55;;;;;;;71.65;43.05;;;;;;;;;;5036923;28;20033;-89
2021/11/22 04:32:21;;;;;;;83.75;47.42;;;;;;;;;;5037830;28;20036;-90
2021/11/22 04:34:47;;;;;;;86.50;48.40;;;;;;;;;;5036775;28;20323;-89
2021/11/22 04:37:15;;;;;;;107.13;56.42;;;;;;;;;;5038120;28;20048;-90
2021/11/22 04:39:42;;;;;;;133.38;67.68;;;;;;;;;;5037734;28;20029;-90
2021/11/22 04:42:08;;;;;;;136.52;67.25;;;;;;;;;;5037686;28;20022;-89
2021/11/22 04:44:34;;;;;;;113.18;59.25;;;;;;;;;;5037610;28;20028;-89
2021/11/22 04:50:22;;;;;;;86.00;48.50;;;;;;;;;;5038046;28;20080;-89
2021/11/22 04:52:49;;;;;;;76.75;44.38;;;;;;;;;;5037425;28;20026;-90
2021/11/22 04:55:16;;;;;;;73.63;42.25;;;;;;;;;;5036676;28;20037;-90
2021/11/22 04:57:43;;;;;;;59.00;35.40;;;;;;;;;;5020125;28;20038;-89
2021/11/22 05:00:09;;;;;;;51.78;33.13;;;;;;;;;;5036784;28;20084;-90
2021/11/22 05:02:37;;;;;;;47.67;28.85;;;;;;;;;;5036684;28;20071;-91
2021/11/22 05:05:03;;;;;;;51.75;33.42;;;;;;;;;;5039321;28;20116;-91
2021/11/22 05:07:29;;;;;;;130.35;89.45;;;;;;;;;;5041656;28;20029;-90
2021/11/22 05:09:55;;;;;;;101.57;63.85;;;;;;;;;;5040633;28;20049;-91
2021/11/22 05:12:21;;;;;;;78.85;50.92;;;;;;;;;;5040467;28;20041;-91
2021/11/22 05:14:48;;;;;;;70.38;42.80;;;;;;;;;;5040689;28;20065;-90
2021/11/22 05:17:14;;;;;;;59.67;37.85;;;;;;;;;;5041279;28;20038;-91
2021/11/22 05:19:40;;;;;;;101.03;59.15;;;;;;;;;;5040402;28;20407;-92
2021/11/22 05:22:06;;;;;;;183.30;109.40;;;;;;;;;;5040240;28;20046;-90
2021/11/22 05:24:32;;;;;;;180.30;107.07;;;;;;;;;;5041471;28;20072;-92
2021/11/22 05:27:00;;;;;;;160.40;93.93;;;;;;;;;;5041023;28;20025;-90
2021/11/22 05:29:26;;;;;;;140.30;81.72;;;;;;;;;;5040367;28;20168;-91
2021/11/22 05:31:52;;;;;;;135.98;81.45;;;;;;;;;;5040307;28;20080;-90
2021/11/22 05:37:22;;;;;;;110.90;56.33;;;;;;;;;;5041206;28;20060;-89
2021/11/22 05:39:49;;;;;;;87.38;47.17;;;;;;;;;;5040827;28;20021;-88
2021/11/22 05:42:16;;;;;;;64.90;38.10;;;;;;;;;;5040804;28;20029;-89
2021/11/22 05:44:42;;;;;;;63.03;34.92;;;;;;;;;;5040928;28;20033;-89
2021/11/22 05:47:09;;;;;;;60.38;37.42;;;;;;;;;;5040260;28;20026;-89
2021/11/22 05:52:41;;;;;;;67.40;40.80;;;;;;;;;;5040776;28;20226;-88
2021/11/22 05:55:12;;;;;;;72.20;41.20;;;;;;;;;;5039995;28;20408;-90
2021/11/22 05:57:38;;;;;;;69.22;39.50;;;;;;;;;;5023944;28;20379;-90
2021/11/22 06:00:05;;;;;;;57.40;34.42;;;;;;;;;;5039901;28;20037;-91
2021/11/22 06:02:31;;;;;;;48.72;30.92;;;;;;;;;;5040477;28;20033;-91
2021/11/22 06:04:57;;;;;;;36.22;26.20;;;;;;;;;;5039576;28;20022;-89
2021/11/22 06:07:23;;;;;;;33.30;24.20;;;;;;;;;;5040682;28;20026;-91
2021/11/22 06:09:49;;;;;;;32.85;21.73;;;;;;;;;;5040833;28;20365;-90
2021/11/22 06:12:15;;;;;;;35.03;21.98;;;;;;;;;;5040573;28;20028;-89
2021/11/22 06:14:41;;;;;;;28.98;20.58;;;;;;;;;;5040502;28;20037;-89
2021/11/22 06:17:07;;;;;;;29.35;19.98;;;;;;;;;;5039880;28;20021;-89
2021/11/22 06:19:33;;;;;;;26.85;19.65;;;;;;;;;;5040325;28;20410;-89
2021/11/22 06:21:59;;;;;;;26.75;20.25;;;;;;;;;;5039105;28;20053;-87
2021/11/22 06:24:26;;;;;;;32.33;20.98;;;;;;;;;;5039119;28;20033;-88
2021/11/22 06:26:54;;;;;;;25.70;19.75;;;;;;;;;;5040299;28;20025;-90
2021/11/22 06:29:21;;;;;;;26.67;20.80;;;;;;;;;;5039178;28;20025;-89
2021/11/22 06:31:48;;;;;;;29.08;21.60;;;;;;;;;;5040046;28;20486;-89
2021/11/22 06:34:51;;;;;;;42.10;22.00;;;;;;;;;;5040226;28;20032;-90
2021/11/22 06:37:17;;;;;;;28.70;21.65;;;;;;;;;;5039934;28;20033;-89
2021/11/22 06:39:43;;;;;;;34.63;23.65;;;;;;;;;;5039745;28;20030;-88
2021/11/22 06:42:09;;;;;;;31.65;22.73;;;;;;;;;;5039825;28;20419;-89
2021/11/22 06:44:35;;;;;;;31.58;22.23;;;;;;;;;;5039898;28;20022;-89
2021/11/22 06:47:02;;;;;;;43.88;23.77;;;;;;;;;;5038719;28;20430;-89
2021/11/22 06:49:28;;;;;;;44.08;25.60;;;;;;;;;;5039901;28;20104;-88
2021/11/22 06:51:54;;;;;;;111.72;49.80;;;;;;;;;;5038808;28;20028;-89
2021/11/22 06:54:20;;;;;;;96.07;51.00;;;;;;;;;;5039680;28;20025;-90
2021/11/22 06:56:47;;;;;;;80.20;49.05;;;;;;;;;;5038560;28;20034;-89
2021/11/22 06:59:13;;;;;;;161.10;83.82;;;;;;;;;;5038442;28;20065;-90
2021/11/22 07:01:39;;;;;;;105.55;61.00;;;;;;;;;;5038527;28;20046;-88
2021/11/22 07:04:05;;;;;;;120.28;64.68;;;;;;;;;;5039521;28;20340;-89
2021/11/22 07:06:31;;;;;;;112.57;65.60;;;;;;;;;;5038984;28;20030;-88
2021/11/22 07:08:57;;;;;;;114.70;66.82;;;;;;;;;;5039128;28;20029;-88
2021/11/22 07:11:23;;;;;;;89.47;43.63;;;;;;;;;;5039229;28;20101;-86
2021/11/22 07:13:50;;;;;;;37.88;23.52;;;;;;;;;;5040069;28;20040;-91
2021/11/22 07:16:16;;;;;;;34.38;23.95;;;;;;;;;;5038699;28;20095;-91
2021/11/22 07:18:42;;;;;;;38.83;23.63;;;;;;;;;;5039449;28;20025;-92
2021/11/22 07:21:09;;;;;;;35.70;23.20;;;;;;;;;;5037865;28;20037;-92
2021/11/22 07:23:36;;;;;;;39.67;23.10;;;;;;;;;;5038137;28;20404;-91
2021/11/22 07:26:03;;;;;;;36.40;23.80;;;;;;;;;;5038335;28;20042;-91
2021/11/22 07:28:29;;;;;;;37.78;25.25;;;;;;;;;;5038103;28;20021;-90
2021/11/22 07:30:55;;;;;;;43.60;27.73;;;;;;;;;;5039201;28;20029;-91
2021/11/22 07:36:25;;;;;;;49.83;30.33;;;;;;;;;;5038919;28;20442;-91
2021/11/22 07:38:51;;;;;;;50.92;31.35;;;;;;;;;;5038884;28;20025;-91
2021/11/22 07:41:19;;;;;;;50.40;30.52;;;;;;;;;;5038396;28;20033;-92
2021/11/22 07:43:45;;;;;;;63.03;33.90;;;;;;;;;;5038655;28;20025;-91
2021/11/22 07:46:11;;;;;;;48.78;30.50;;;;;;;;;;5037514;28;20028;-90
2021/11/22 07:52:13;;;;;;;68.10;39.40;;;;;;;;;;5038424;28;20072;-91
2021/11/22 07:54:39;;;;;;;55.90;33.20;;;;;;;;;;5037691;28;20022;-91
2021/11/22 07:57:05;;;;;;;55.13;33.45;;;;;;;;;;5037648;28;20124;-91
2021/11/22 07:59:31;;;;;;;57.78;33.83;;;;;;;;;;5037406;28;20148;-91
2021/11/22 08:02:00;;;;;;;57.28;36.45;;;;;;;;;;5037616;28;20037;-90
2021/11/22 08:10:35;;;;;;;56.42;37.33;;;;;;;;;;5038330;28;20064;-88
2021/11/22 08:13:09;;;;;;;60.20;37.35;;;;;;;;;;5038456;28;20040;-90
2021/11/22 08:15:36;;;;;;;59.17;38.50;;;;;;;;;;5038131;28;20037;-90
2021/11/22 08:18:03;;;;;;;72.30;43.38;;;;;;;;;;5037456;28;20071;-91
2021/11/22 08:20:29;;;;;;;75.60;43.92;;;;;;;;;;5036926;28;20454;-92
2021/11/22 08:22:55;;;;;;;62.70;39.78;;;;;;;;;;5037130;28;20428;-92
2021/11/22 08:25:24;;;;;;;63.28;39.63;;;;;;;;;;5037557;28;20434;-92
2021/11/22 08:27:53;;;;;;;68.05;41.05;;;;;;;;;;5037293;28;20068;-91
2021/11/22 08:30:20;;;;;;;69.85;39.67;;;;;;;;;;5038303;28;20034;-92
2021/11/22 08:32:51;;;;;;;60.00;38.28;;;;;;;;;;5037864;28;20346;-91
2021/11/22 08:35:18;;;;;;;60.50;37.40;;;;;;;;;;5038066;28;20029;-89
2021/11/22 08:37:45;;;;;;;77.68;43.60;;;;;;;;;;5038010;28;20028;-92
2021/11/22 08:40:12;;;;;;;84.90;44.53;;;;;;;;;;5037948;28;20030;-92
2021/11/22 08:42:39;;;;;;;89.75;46.70;;;;;;;;;;5037251;28;20037;-91
2021/11/22 08:45:06;;;;;;;76.15;41.78;;;;;;;;;;5036688;28;20051;-91
2021/11/22 08:47:32;;;;;;;62.25;37.75;;;;;;;;;;5037878;28;20026;-92
2021/11/22 08:49:58;;;;;;;55.58;32.58;;;;;;;;;;5037728;28;20464;-91
2021/11/22 08:52:25;;;;;;;56.53;32.35;;;;;;;;;;5037780;28;20347;-92
2021/11/22 08:54:51;;;;;;;52.58;34.88;;;;;;;;;;5037703;28;20053;-92
2021/11/22 08:57:18;;;;;;;53.60;32.60;;;;;;;;;;5037570;28;20033;-92
2021/11/22 08:59:44;;;;;;;52.75;34.58;;;;;;;;;;5036858;28;20048;-91
2021/11/22 09:02:11;;;;;;;49.08;29.85;;;;;;;;;;5020698;28;20037;-91
2021/11/22 09:07:42;;;;;;;45.33;27.92;;;;;;;;;;5037637;28;20044;-91
2021/11/22 09:10:08;;;;;;;47.38;28.77;;;;;;;;;;5036794;28;20061;-92
2021/11/22 09:12:34;;;;;;;49.30;32.28;;;;;;;;;;5036617;28;20061;-91
2021/11/22 09:15:01;;;;;;;55.25;32.85;;;;;;;;;;5037158;28;20039;-92
2021/11/22 09:17:27;;;;;;;44.10;28.58;;;;;;;;;;5037362;28;20022;-91
2021/11/22 09:20:11;;;;;;;44.17;29.55;;;;;;;;;;5037334;28;20029;-92
2021/11/22 09:22:38;;;;;;;43.25;27.85;;;;;;;;;;5037676;28;20033;-90
2021/11/22 09:25:05;;;;;;;59.28;37.65;;;;;;;;;;5036312;28;20125;-92
2021/11/22 09:27:32;;;;;;;51.25;31.95;;;;;;;;;;5036632;28;20033;-91
2021/11/22 09:29:59;;;;;;;59.40;33.92;;;;;;;;;;5036449;28;20025;-91
2021/11/22 09:32:25;;;;;;;67.13;38.17;;;;;;;;;;5037371;28;20021;-92
2021/11/22 09:34:51;;;;;;;53.13;30.33;;;;;;;;;;5036647;28;20128;-92
2021/11/22 09:37:17;;;;;;;54.63;34.55;;;;;;;;;;5037426;28;20428;-90
2021/11/22 09:39:44;;;;;;;49.00;30.75;;;;;;;;;;5036209;28;20033;-91
2021/11/22 09:42:11;;;;;;;48.88;29.83;;;;;;;;;;5036632;28;20037;-91
2021/11/22 09:44:37;;;;;;;45.85;29.60;;;;;;;;;;5037515;28;20052;-91
2021/11/22 09:47:03;;;;;;;51.65;31.48;;;;;;;;;;5037361;28;20022;-92
2021/11/22 09:50:07;;;;;;;48.42;30.45;;;;;;;;;;5036269;28;20025;-89
2021/11/22 09:52:33;;;;;;;44.28;28.27;;;;;;;;;;5040070;28;20022;-90
2021/11/22 09:54:59;;;;;;;46.25;30.98;;;;;;;;;;5040652;28;20026;-90
2021/11/22 09:57:26;;;;;;;51.95;31.00;;;;;;;;;;5039873;28;20120;-92
2021/11/22 09:59:52;;;;;;;48.70;30.33;;;;;;;;;;5039598;28;20083;-92
2021/11/22 10:02:18;;;;;;;41.67;28.40;;;;;;;;;;5040956;28;20047;-90
2021/11/22 10:08:06;;;;;;;42.53;28.52;;;;;;;;;;5040483;28;20137;-91
2021/11/22 10:10:34;;;;;;;44.65;28.63;;;;;;;;;;5040760;28;20017;-90
2021/11/22 10:13:01;;;;;;;53.72;32.03;;;;;;;;;;5040362;28;20030;-91
2021/11/22 10:15:31;;;;;;;52.05;32.63;;;;;;;;;;5040275;28;20423;-90
2021/11/22 10:17:57;;;;;;;61.70;35.05;;;;;;;;;;5040633;28;20071;-92
2021/11/22 10:23:28;;;;;;;50.92;31.92;;;;;;;;;;5023904;28;20056;-92
2021/11/22 10:25:55;;;;;;;58.45;35.42;;;;;;;;;;5039328;28;20446;-91
2021/11/22 10:28:27;;;;;;;54.20;34.13;;;;;;;;;;5039267;28;20079;-92
2021/11/22 10:31:01;;;;;;;58.70;34.42;;;;;;;;;;5042162;28;20108;-90
2021/11/22 10:33:31;;;;;;;53.88;32.55;;;;;;;;;;5039880;28;20096;-91
2021/11/22 10:36:00;;;;;;;58.13;36.20;;;;;;;;;;5039154;28;20030;-91
2021/11/22 10:38:36;;;;;;;56.03;36.25;;;;;;;;;;5039028;28;20025;-90
2021/11/22 10:41:07;;;;;;;53.35;34.83;;;;;;;;;;5040093;28;20032;-91
2021/11/22 10:43:39;;;;;;;59.58;38.65;;;;;;;;;;5039155;28;20088;-91
2021/11/22 10:46:08;;;;;;;50.33;31.42;;;;;;;;;;5039650;28;20113;-91
2021/11/22 10:48:34;;;;;;;44.42;28.50;;;;;;;;;;5039824;28;20034;-91
2021/11/22 10:51:12;;;;;;;42.88;28.58;;;;;;;;;;5039119;28;20029;-90
2021/11/22 10:53:45;;;;;;;44.85;29.30;;;;;;;;;;5039462;28;20026;-91
2021/11/22 10:56:13;;;;;;;44.70;29.30;;;;;;;;;;5039475;28;20408;-90
2021/11/22 10:58:49;;;;;;;44.78;28.90;;;;;;;;;;5038394;28;20037;-91
2021/11/22 11:01:18;;;;;;;48.45;29.52;;;;;;;;;;5039762;28;20041;-90
2021/11/22 11:12:55;;;;;;;48.45;32.25;;;;;;;;;;5039570;28;20083;-90
2021/11/22 11:15:23;;;;;;;91.35;45.78;;;;;;;;;;5038126;28;20105;-90
2021/11/22 11:17:49;;;;;;;69.90;39.05;;;;;;;;;;5039107;28;20029;-90
2021/11/22 11:20:17;;;;;;;143.40;57.80;;;;;;;;;;5039226;28;20427;-90
2021/11/22 11:22:43;;;;;;;89.82;45.90;;;;;;;;;;5038964;28;20420;-90
2021/11/22 11:25:10;;;;;;;80.75;44.08;;;;;;;;;;5038146;28;20049;-92
2021/11/22 11:27:39;;;;;;;68.28;40.95;;;;;;;;;;5037590;28;20021;-90
2021/11/22 11:30:06;;;;;;;70.10;42.50;;;;;;;;;;5039202;28;20041;-91
2021/11/22 11:32:32;;;;;;;67.63;41.15;;;;;;;;;;5039389;28;20025;-91
2021/11/22 11:38:38;;;;;;;67.22;42.13;;;;;;;;;;5038667;28;20067;-91
2021/11/22 11:41:12;;;;;;;63.15;40.10;;;;;;;;;;5037777;28;20032;-91
2021/11/22 11:44:02;;;;;;;57.70;37.63;;;;;;;;;;5038700;28;20477;-91
2021/11/22 11:46:38;;;;;;;56.05;37.10;;;;;;;;;;5037428;28;20041;-91
2021/11/22 11:49:08;;;;;;;57.85;38.25;;;;;;;;;;5037890;28;20072;-90
2021/11/22 11:51:40;;;;;;;64.18;38.28;;;;;;;;;;5037901;28;20021;-90
2021/11/22 11:54:18;;;;;;;67.38;40.40;;;;;;;;;;5037685;28;20029;-90
2021/11/22 11:56:46;;;;;;;73.00;41.85;;;;;;;;;;5038299;28;20040;-91
2021/11/22 11:59:14;;;;;;;67.93;40.88;;;;;;;;;;5038041;28;20450;-91
2021/11/22 12:02:02;;;;;;;63.17;39.20;;;;;;;;;;5038300;28;20036;-90
2021/11/22 12:08:08;;;;;;;52.72;33.63;;;;;;;;;;5038579;28;20035;-91
2021/11/22 12:10:42;;;;;;;51.58;33.25;;;;;;;;;;5038078;28;20032;-92
2021/11/22 12:13:10;;;;;;;52.63;34.45;;;;;;;;;;5038284;28;20067;-88
2021/11/22 12:15:42;;;;;;;53.65;36.47;;;;;;;;;;5037451;28;20028;-90
2021/11/22 12:18:09;;;;;;;63.17;39.90;;;;;;;;;;5038312;28;20029;-89
2021/11/22 12:20:35;;;;;;;61.90;39.33;;;;;;;;;;5038210;28;20095;-90
2021/11/22 12:23:02;;;;;;;65.45;41.90;;;;;;;;;;5038020;28;20119;-90
2021/11/22 12:25:38;;;;;;;66.85;42.05;;;;;;;;;;5038093;28;20029;-90
2021/11/22 12:28:05;;;;;;;66.25;41.33;;;;;;;;;;5036696;28;20030;-90
2021/11/22 12:30:32;;;;;;;62.40;40.97;;;;;;;;;;5036839;28;20033;-90
2021/11/22 12:33:30;;;;;;;61.40;39.08;;;;;;;;;;5036856;28;20028;-90
2021/11/22 12:39:08;;;;;;;60.38;37.00;;;;;;;;;;4997216;28;20045;-91
2021/11/22 12:41:37;;;;;;;64.20;36.15;;;;;;;;;;4996714;28;20027;-90
2021/11/22 12:44:13;;;;;;;58.58;36.13;;;;;;;;;;4996671;28;20460;-90
2021/11/22 12:46:50;;;;;;;57.72;37.28;;;;;;;;;;4996650;28;20093;-90
2021/11/22 12:49:33;;;;;;;67.75;38.47;;;;;;;;;;4980305;28;20018;-90
2021/11/22 12:52:14;;;;;;;62.60;38.88;;;;;;;;;;4980323;28;20034;-90
2021/11/22 12:54:51;;;;;;;64.85;38.70;;;;;;;;;;4996526;28;20113;-90
2021/11/22 12:57:18;;;;;;;82.15;41.83;;;;;;;;;;4980602;28;20028;-92
2021/11/22 12:59:45;;;;;;;70.70;40.53;;;;;;;;;;4996764;28;20064;-90
2021/11/22 13:02:31;;;;;;;63.20;41.05;;;;;;;;;;4979918;28;20035;-91
2021/11/22 13:08:18;;;;;;;;;;;;;;;;;;4997136;28;20040;-90
2021/11/22 13:10:53;;;;;;;68.68;41.28;;;;;;;;;;5003821;28;19940;-89
2021/11/22 13:13:40;;;;;;;68.85;41.13;;;;;;;;;;5037364;28;20416;-90
2021/11/22 13:16:14;;;;;;;68.07;39.83;;;;;;;;;;5036750;28;20379;-89
2021/11/22 13:18:46;;;;;;;69.85;41.55;;;;;;;;;;5036573;28;20363;-90
2021/11/22 13:21:31;;;;;;;73.80;44.55;;;;;;;;;;5037323;28;20030;-90
2021/11/22 13:24:03;;;;;;;104.82;57.92;;;;;;;;;;5036487;28;20118;-91
2021/11/22 13:26:29;;;;;;;117.63;59.45;;;;;;;;;;5038686;28;20057;-92
2021/11/22 13:28:57;;;;;;;129.63;59.78;;;;;;;;;;5040453;28;20325;-90
2021/11/22 13:31:27;;;;;;;121.43;56.17;;;;;;;;;;5041228;28;20084;-92
2021/11/22 13:33:53;;;;;;;119.45;54.42;;;;;;;;;;5041062;28;20408;-90
2021/11/22 13:36:28;;;;;;;149.63;62.83;;;;;;;;;;5040273;28;20060;-91
2021/11/22 13:38:54;;;;;;;130.75;56.28;;;;;;;;;;5040419;28;20079;-91
2021/11/22 13:41:20;;;;;;;178.30;67.57;;;;;;;;;;5040916;28;20108;-90
2021/11/22 13:43:51;;;;;;;181.57;66.18;;;;;;;;;;5040941;28;20040;-90
2021/11/22 13:46:17;;;;;;;180.95;67.95;;;;;;;;;;5040562;28;20028;-90
2021/11/22 13:48:46;;;;;;;92.20;46.58;;;;;;;;;;5040172;28;20088;-90
2021/11/22 13:54:18;;;;;;;116.85;55.20;;;;;;;;;;5041833;28;20407;-94
2021/11/22 13:56:52;;;;;;;120.43;52.63;;;;;;;;;;5042681;28;20081;-96
2021/11/22 16:05:34;;;;;;;46.78;30.70;;;;;;;;;;5572784;23;21368;-95
2021/11/22 16:08:00;;;;;;;50.85;33.35;;;;;;;;;;4942452;29;20047;-95
2021/11/22 16:10:26;;;;;;;45.38;30.73;;;;;;;;;;4929454;29;20042;-96
2021/11/22 16:12:52;;;;;;;44.70;30.10;;;;;;;;;;4944766;29;20047;-96
2021/11/22 16:15:18;;;;;;;50.47;32.90;;;;;;;;;;4943283;29;20075;-96
2021/11/22 16:17:44;;;;;;;51.55;32.75;;;;;;;;;;4926824;29;20035;-95
2021/11/22 16:20:12;;;;;;;55.25;35.58;;;;;;;;;;4945820;29;20147;-96
2021/11/22 16:22:38;;;;;;;56.55;35.95;;;;;;;;;;4945056;29;20028;-95
2021/11/22 16:25:05;;;;;;;80.53;35.60;;;;;;;;;;4945464;29;20034;-96
2021/11/22 16:27:32;;;;;;;61.50;37.78;;;;;;;;;;4945899;29;20031;-90
2021/11/22 16:29:59;;;;;;;87.63;48.95;;;;;;;;;;4926051;29;20059;-95
2021/11/22 16:32:27;;;;;;;63.88;41.55;;;;;;;;;;4944887;29;20027;-94
2021/11/22 16:41:03;;;;;;;51.47;33.08;;;;;;;;;;4942708;29;20418;-95
2021/11/22 16:43:29;;;;;;;53.05;35.42;;;;;;;;;;4942638;29;20028;-96
2021/11/22 16:45:56;;;;;;;52.47;35.83;;;;;;;;;;4923773;29;20415;-94
2021/11/22 16:48:22;;;;;;;56.38;38.25;;;;;;;;;;4940716;29;20102;-94
2021/11/22 17:03:03;;;;;;;60.70;39.17;;;;;;;;;;4906764;29;20027;-90
2021/11/22 17:09:05;;;;;;;57.35;35.38;;;;;;;;;;4885429;29;20085;-90
2021/11/22 17:11:32;;;;;;;64.38;38.78;;;;;;;;;;4868134;29;20060;-92
2021/11/22 17:13:58;;;;;;;73.72;48.35;;;;;;;;;;4868617;29;20112;-93
2021/11/22 17:16:24;;;;;;;85.18;56.90;;;;;;;;;;4869101;29;20036;-92
2021/11/22 17:18:50;;;;;;;78.15;47.40;;;;;;;;;;4868713;29;20036;-93
2021/11/22 17:24:20;;;;;;;62.45;38.95;;;;;;;;;;4868823;29;20081;-91
2021/11/22 17:26:47;;;;;;;58.63;37.88;;;;;;;;;;4868317;29;20041;-92
2021/11/22 17:29:13;;;;;;;57.08;37.30;;;;;;;;;;4868561;29;20025;-92
2021/11/22 17:31:41;;;;;;;51.38;35.95;;;;;;;;;;4867700;29;20038;-89
2021/11/22 17:34:07;;;;;;;52.95;34.58;;;;;;;;;;4867930;29;20034;-92
2021/11/22 17:36:33;;;;;;;59.78;40.20;;;;;;;;;;4868152;29;20041;-91
2021/11/22 17:39:01;;;;;;;58.20;35.55;;;;;;;;;;4867502;29;20041;-90
2021/11/22 17:41:27;;;;;;;51.63;34.58;;;;;;;;;;4867699;29;20037;-91
2021/11/22 17:43:56;;;;;;;55.22;37.65;;;;;;;;;;4868596;29;20045;-91
2021/11/22 17:46:23;;;;;;;56.05;37.95;;;;;;;;;;4867438;29;20029;-91
2021/11/22 17:48:49;;;;;;;53.40;34.55;;;;;;;;;;4868511;29;20026;-92
2021/11/22 17:51:15;;;;;;;52.15;35.88;;;;;;;;;;4867355;29;20029;-92
2021/11/22 17:53:42;;;;;;;54.78;36.72;;;;;;;;;;4868596;29;20025;-91
2021/11/22 17:56:09;;;;;;;58.50;36.22;;;;;;;;;;4867886;29;20081;-90
2021/11/22 17:58:36;;;;;;;58.33;38.45;;;;;;;;;;4868063;29;20031;-91
2021/11/22 18:01:02;;;;;;;77.95;49.75;;;;;;;;;;4868167;29;20049;-91
2021/11/22 18:03:28;;;;;;;92.78;53.20;;;;;;;;;;4867918;29;20029;-90
2021/11/22 18:05:54;;;;;;;84.35;50.42;;;;;;;;;;4868180;29;20051;-91